sensor_id;sensor_type;location;lat;lon;timestamp;temperature;humidity
26641;DHT22;14269;47.358;0.724;2023-02-12T00:00:50;8.0;62.0
26641;DHT22;14269;47.358;0.724;2023-02-12T00:03:22;8.0;62.0
26641;DHT22;14269;47.358;0.724;2023-02-12T00:05:53;8.0;62.0
26641;DHT22;14269;47.358;0.724;2023-02-12T00:08:25;8.0;62.0
26641;DHT22;14269;47.358;0.724;2023-02-12T00:10:57;8.0;62.0
26641;DHT22;14269;47.358;0.724;2023-02-12T00:13:29;7.0;63.0
26641;DHT22;14269;47.358;0.724;2023-02-12T00:16:12;8.0;63.0
26641;DHT22;14269;47.358;0.724;2023-02-12T00:18:53;8.0;63.0
26641;DHT22;14269;47.358;0.724;2023-02-12T00:21:34;8.0;63.0
26641;DHT22;14269;47.358;0.724;2023-02-12T00:24:05;7.0;64.0
26641;DHT22;14269;47.358;0.724;2023-02-12T00:26:37;7.0;65.0
26641;DHT22;14269;47.358;0.724;2023-02-12T00:29:09;8.0;64.0
26641;DHT22;14269;47.358;0.724;2023-02-12T00:31:41;7.0;65.0
26641;DHT22;14269;47.358;0.724;2023-02-12T00:34:12;7.0;65.0
26641;DHT22;14269;47.358;0.724;2023-02-12T00:36:43;7.0;65.0
26641;DHT22;14269;47.358;0.724;2023-02-12T00:39:16;7.0;65.0
26641;DHT22;14269;47.358;0.724;2023-02-12T00:41:47;7.0;65.0
26641;DHT22;14269;47.358;0.724;2023-02-12T00:44:18;7.0;64.0
26641;DHT22;14269;47.358;0.724;2023-02-12T00:46:50;7.0;64.0
26641;DHT22;14269;47.358;0.724;2023-02-12T00:49:22;7.0;64.0
26641;DHT22;14269;47.358;0.724;2023-02-12T00:51:53;7.0;64.0
26641;DHT22;14269;47.358;0.724;2023-02-12T00:54:25;7.0;64.0
26641;DHT22;14269;47.358;0.724;2023-02-12T00:56:57;7.0;64.0
26641;DHT22;14269;47.358;0.724;2023-02-12T00:59:28;7.0;64.0
26641;DHT22;14269;47.358;0.724;2023-02-12T01:02:00;7.0;64.0
26641;DHT22;14269;47.358;0.724;2023-02-12T01:04:31;7.0;64.0
26641;DHT22;14269;47.358;0.724;2023-02-12T01:07:03;7.0;64.0
26641;DHT22;14269;47.358;0.724;2023-02-12T01:09:35;7.0;64.0
26641;DHT22;14269;47.358;0.724;2023-02-12T01:12:07;7.0;64.0
26641;DHT22;14269;47.358;0.724;2023-02-12T01:14:38;7.0;64.0
26641;DHT22;14269;47.358;0.724;2023-02-12T01:17:10;7.0;64.0
26641;DHT22;14269;47.358;0.724;2023-02-12T01:19:41;7.0;64.0
26641;DHT22;14269;47.358;0.724;2023-02-12T01:22:13;7.0;64.0
26641;DHT22;14269;47.358;0.724;2023-02-12T01:24:45;7.0;64.0
26641;DHT22;14269;47.358;0.724;2023-02-12T01:27:16;7.0;65.0
26641;DHT22;14269;47.358;0.724;2023-02-12T01:29:48;7.0;65.0
26641;DHT22;14269;47.358;0.724;2023-02-12T01:32:19;7.0;65.0
26641;DHT22;14269;47.358;0.724;2023-02-12T01:34:51;7.0;65.0
26641;DHT22;14269;47.358;0.724;2023-02-12T01:37:23;7.0;65.0
26641;DHT22;14269;47.358;0.724;2023-02-12T01:39:54;7.0;65.0
26641;DHT22;14269;47.358;0.724;2023-02-12T01:42:26;7.0;66.0
26641;DHT22;14269;47.358;0.724;2023-02-12T01:45:40;7.0;66.0
26641;DHT22;14269;47.358;0.724;2023-02-12T01:48:22;7.0;66.0
26641;DHT22;14269;47.358;0.724;2023-02-12T01:51:03;7.0;66.0
26641;DHT22;14269;47.358;0.724;2023-02-12T01:53:47;7.0;66.0
26641;DHT22;14269;47.358;0.724;2023-02-12T01:56:25;7.0;66.0
26641;DHT22;14269;47.358;0.724;2023-02-12T01:58:57;7.0;66.0
26641;DHT22;14269;47.358;0.724;2023-02-12T02:01:30;7.0;66.0
26641;DHT22;14269;47.358;0.724;2023-02-12T02:04:14;7.0;66.0
26641;DHT22;14269;47.358;0.724;2023-02-12T02:06:56;7.0;66.0
26641;DHT22;14269;47.358;0.724;2023-02-12T02:09:35;7.0;67.0
26641;DHT22;14269;47.358;0.724;2023-02-12T02:14:38;7.0;67.0
26641;DHT22;14269;47.358;0.724;2023-02-12T02:17:27;7.0;67.0
26641;DHT22;14269;47.358;0.724;2023-02-12T02:20:20;7.0;68.0
26641;DHT22;14269;47.358;0.724;2023-02-12T02:23:19;7.0;68.0
26641;DHT22;14269;47.358;0.724;2023-02-12T02:26:21;6.0;68.0
26641;DHT22;14269;47.358;0.724;2023-02-12T02:29:12;7.0;68.0
26641;DHT22;14269;47.358;0.724;2023-02-12T02:31:54;7.0;68.0
26641;DHT22;14269;47.358;0.724;2023-02-12T02:34:38;7.0;68.0
26641;DHT22;14269;47.358;0.724;2023-02-12T02:37:16;7.0;68.0
26641;DHT22;14269;47.358;0.724;2023-02-12T02:39:57;7.0;67.0
26641;DHT22;14269;47.358;0.724;2023-02-12T02:42:38;7.0;68.0
26641;DHT22;14269;47.358;0.724;2023-02-12T02:45:21;7.0;68.0
26641;DHT22;14269;47.358;0.724;2023-02-12T02:48:02;7.0;68.0
26641;DHT22;14269;47.358;0.724;2023-02-12T02:50:45;6.0;68.0
26641;DHT22;14269;47.358;0.724;2023-02-12T02:53:26;6.0;69.0
26641;DHT22;14269;47.358;0.724;2023-02-12T02:56:06;7.0;68.0
26641;DHT22;14269;47.358;0.724;2023-02-12T02:58:50;7.0;68.0
26641;DHT22;14269;47.358;0.724;2023-02-12T03:01:31;7.0;68.0
26641;DHT22;14269;47.358;0.724;2023-02-12T03:04:13;6.0;69.0
26641;DHT22;14269;47.358;0.724;2023-02-12T03:06:54;7.0;69.0
26641;DHT22;14269;47.358;0.724;2023-02-12T03:09:37;7.0;68.0
26641;DHT22;14269;47.358;0.724;2023-02-12T03:12:18;7.0;68.0
26641;DHT22;14269;47.358;0.724;2023-02-12T03:15:02;7.0;68.0
26641;DHT22;14269;47.358;0.724;2023-02-12T03:17:40;7.0;68.0
26641;DHT22;14269;47.358;0.724;2023-02-12T03:20:24;6.0;68.0
26641;DHT22;14269;47.358;0.724;2023-02-12T03:23:05;6.0;68.0
26641;DHT22;14269;47.358;0.724;2023-02-12T03:25:49;6.0;68.0
26641;DHT22;14269;47.358;0.724;2023-02-12T03:28:27;6.0;68.0
26641;DHT22;14269;47.358;0.724;2023-02-12T03:31:10;6.0;69.0
26641;DHT22;14269;47.358;0.724;2023-02-12T03:33:57;6.0;69.0
26641;DHT22;14269;47.358;0.724;2023-02-12T03:36:46;6.0;70.0
26641;DHT22;14269;47.358;0.724;2023-02-12T03:39:27;6.0;70.0
26641;DHT22;14269;47.358;0.724;2023-02-12T03:42:06;6.0;70.0
26641;DHT22;14269;47.358;0.724;2023-02-12T03:44:49;6.0;69.0
26641;DHT22;14269;47.358;0.724;2023-02-12T03:47:37;6.0;70.0
26641;DHT22;14269;47.358;0.724;2023-02-12T03:50:14;6.0;70.0
26641;DHT22;14269;47.358;0.724;2023-02-12T03:52:51;6.0;71.0
26641;DHT22;14269;47.358;0.724;2023-02-12T03:55:23;5.0;72.0
26641;DHT22;14269;47.358;0.724;2023-02-12T03:58:00;6.0;72.0
26641;DHT22;14269;47.358;0.724;2023-02-12T04:00:36;6.0;71.0
26641;DHT22;14269;47.358;0.724;2023-02-12T04:03:08;6.0;71.0
26641;DHT22;14269;47.358;0.724;2023-02-12T04:05:39;6.0;70.0
26641;DHT22;14269;47.358;0.724;2023-02-12T04:08:12;6.0;71.0
26641;DHT22;14269;47.358;0.724;2023-02-12T04:10:54;6.0;71.0
26641;DHT22;14269;47.358;0.724;2023-02-12T04:13:41;6.0;70.0
26641;DHT22;14269;47.358;0.724;2023-02-12T04:16:21;6.0;71.0
26641;DHT22;14269;47.358;0.724;2023-02-12T04:18:58;6.0;71.0
26641;DHT22;14269;47.358;0.724;2023-02-12T04:21:42;6.0;72.0
26641;DHT22;14269;47.358;0.724;2023-02-12T04:24:30;6.0;72.0
26641;DHT22;14269;47.358;0.724;2023-02-12T04:27:19;6.0;72.0
26641;DHT22;14269;47.358;0.724;2023-02-12T04:30:02;6.0;72.0
26641;DHT22;14269;47.358;0.724;2023-02-12T04:32:40;6.0;72.0
26641;DHT22;14269;47.358;0.724;2023-02-12T04:35:22;6.0;72.0
26641;DHT22;14269;47.358;0.724;2023-02-12T04:38:07;6.0;71.0
26641;DHT22;14269;47.358;0.724;2023-02-12T04:40:43;6.0;71.0
26641;DHT22;14269;47.358;0.724;2023-02-12T04:43:14;6.0;71.0
26641;DHT22;14269;47.358;0.724;2023-02-12T04:45:45;6.0;71.0
26641;DHT22;14269;47.358;0.724;2023-02-12T04:48:17;6.0;71.0
26641;DHT22;14269;47.358;0.724;2023-02-12T04:50:49;6.0;71.0
26641;DHT22;14269;47.358;0.724;2023-02-12T04:53:20;6.0;72.0
26641;DHT22;14269;47.358;0.724;2023-02-12T04:55:52;6.0;71.0
26641;DHT22;14269;47.358;0.724;2023-02-12T04:58:24;7.0;71.0
26641;DHT22;14269;47.358;0.724;2023-02-12T05:00:57;6.0;70.0
26641;DHT22;14269;47.358;0.724;2023-02-12T05:03:37;6.0;71.0
26641;DHT22;14269;47.358;0.724;2023-02-12T05:06:09;6.0;70.0
26641;DHT22;14269;47.358;0.724;2023-02-12T05:08:40;6.0;70.0
26641;DHT22;14269;47.358;0.724;2023-02-12T05:11:12;6.0;70.0
26641;DHT22;14269;47.358;0.724;2023-02-12T05:13:47;6.0;71.0
26641;DHT22;14269;47.358;0.724;2023-02-12T05:16:25;7.0;70.0
26641;DHT22;14269;47.358;0.724;2023-02-12T05:18:57;7.0;71.0
26641;DHT22;14269;47.358;0.724;2023-02-12T05:21:29;6.0;71.0
26641;DHT22;14269;47.358;0.724;2023-02-12T05:24:01;6.0;71.0
26641;DHT22;14269;47.358;0.724;2023-02-12T05:26:32;7.0;71.0
26641;DHT22;14269;47.358;0.724;2023-02-12T05:29:04;7.0;70.0
26641;DHT22;14269;47.358;0.724;2023-02-12T05:31:35;6.0;71.0
26641;DHT22;14269;47.358;0.724;2023-02-12T05:34:09;6.0;71.0
26641;DHT22;14269;47.358;0.724;2023-02-12T05:36:49;7.0;71.0
26641;DHT22;14269;47.358;0.724;2023-02-12T05:39:21;7.0;71.0
26641;DHT22;14269;47.358;0.724;2023-02-12T05:41:52;7.0;71.0
26641;DHT22;14269;47.358;0.724;2023-02-12T05:44:24;7.0;70.0
26641;DHT22;14269;47.358;0.724;2023-02-12T05:46:55;7.0;71.0
26641;DHT22;14269;47.358;0.724;2023-02-12T05:49:27;7.0;70.0
26641;DHT22;14269;47.358;0.724;2023-02-12T05:51:59;6.0;71.0
26641;DHT22;14269;47.358;0.724;2023-02-12T05:54:30;6.0;71.0
26641;DHT22;14269;47.358;0.724;2023-02-12T05:57:02;7.0;71.0
26641;DHT22;14269;47.358;0.724;2023-02-12T05:59:34;6.0;72.0
26641;DHT22;14269;47.358;0.724;2023-02-12T06:02:05;6.0;71.0
26641;DHT22;14269;47.358;0.724;2023-02-12T06:04:37;7.0;71.0
26641;DHT22;14269;47.358;0.724;2023-02-12T06:07:08;7.0;71.0
26641;DHT22;14269;47.358;0.724;2023-02-12T06:09:40;7.0;71.0
26641;DHT22;14269;47.358;0.724;2023-02-12T06:12:12;7.0;71.0
26641;DHT22;14269;47.358;0.724;2023-02-12T06:14:43;7.0;71.0
26641;DHT22;14269;47.358;0.724;2023-02-12T06:17:15;7.0;71.0
26641;DHT22;14269;47.358;0.724;2023-02-12T06:19:47;6.0;72.0
26641;DHT22;14269;47.358;0.724;2023-02-12T06:22:18;6.0;72.0
26641;DHT22;14269;47.358;0.724;2023-02-12T06:24:50;6.0;72.0
26641;DHT22;14269;47.358;0.724;2023-02-12T06:27:22;7.0;72.0
26641;DHT22;14269;47.358;0.724;2023-02-12T06:29:53;7.0;71.0
26641;DHT22;14269;47.358;0.724;2023-02-12T06:32:25;7.0;71.0
26641;DHT22;14269;47.358;0.724;2023-02-12T06:34:57;7.0;71.0
26641;DHT22;14269;47.358;0.724;2023-02-12T06:37:28;7.0;71.0
26641;DHT22;14269;47.358;0.724;2023-02-12T06:40:00;7.0;72.0
26641;DHT22;14269;47.358;0.724;2023-02-12T06:42:32;7.0;71.0
26641;DHT22;14269;47.358;0.724;2023-02-12T06:45:04;7.0;71.0
26641;DHT22;14269;47.358;0.724;2023-02-12T06:47:35;7.0;71.0
26641;DHT22;14269;47.358;0.724;2023-02-12T06:50:07;7.0;72.0
26641;DHT22;14269;47.358;0.724;2023-02-12T06:52:38;6.0;72.0
26641;DHT22;14269;47.358;0.724;2023-02-12T06:55:10;7.0;72.0
26641;DHT22;14269;47.358;0.724;2023-02-12T06:57:42;7.0;71.0
26641;DHT22;14269;47.358;0.724;2023-02-12T07:00:13;7.0;71.0
26641;DHT22;14269;47.358;0.724;2023-02-12T07:02:51;7.0;71.0
26641;DHT22;14269;47.358;0.724;2023-02-12T07:05:26;7.0;71.0
26641;DHT22;14269;47.358;0.724;2023-02-12T07:07:58;7.0;71.0
26641;DHT22;14269;47.358;0.724;2023-02-12T07:10:30;7.0;70.0
26641;DHT22;14269;47.358;0.724;2023-02-12T07:13:03;7.0;71.0
26641;DHT22;14269;47.358;0.724;2023-02-12T07:15:43;7.0;70.0
26641;DHT22;14269;47.358;0.724;2023-02-12T07:18:15;7.0;70.0
26641;DHT22;14269;47.358;0.724;2023-02-12T07:20:47;7.0;70.0
26641;DHT22;14269;47.358;0.724;2023-02-12T07:23:18;7.0;70.0
26641;DHT22;14269;47.358;0.724;2023-02-12T07:25:54;7.0;70.0
26641;DHT22;14269;47.358;0.724;2023-02-12T07:28:32;7.0;70.0
26641;DHT22;14269;47.358;0.724;2023-02-12T07:31:06;7.0;70.0
26641;DHT22;14269;47.358;0.724;2023-02-12T07:33:46;7.0;71.0
26641;DHT22;14269;47.358;0.724;2023-02-12T07:36:18;7.0;71.0
26641;DHT22;14269;47.358;0.724;2023-02-12T07:39:00;7.0;71.0
26641;DHT22;14269;47.358;0.724;2023-02-12T07:41:40;7.0;71.0
26641;DHT22;14269;47.358;0.724;2023-02-12T07:44:12;7.0;70.0
26641;DHT22;14269;47.358;0.724;2023-02-12T07:46:45;7.0;70.0
26641;DHT22;14269;47.358;0.724;2023-02-12T07:49:25;7.0;70.0
26641;DHT22;14269;47.358;0.724;2023-02-12T07:51:57;7.0;70.0
26641;DHT22;14269;47.358;0.724;2023-02-12T07:54:28;7.0;70.0
26641;DHT22;14269;47.358;0.724;2023-02-12T07:57:00;7.0;71.0
26641;DHT22;14269;47.358;0.724;2023-02-12T07:59:32;7.0;70.0
26641;DHT22;14269;47.358;0.724;2023-02-12T08:02:03;7.0;70.0
26641;DHT22;14269;47.358;0.724;2023-02-12T08:04:35;7.0;70.0
26641;DHT22;14269;47.358;0.724;2023-02-12T08:07:07;7.0;70.0
26641;DHT22;14269;47.358;0.724;2023-02-12T08:09:38;7.0;70.0
26641;DHT22;14269;47.358;0.724;2023-02-12T08:12:10;7.0;70.0
26641;DHT22;14269;47.358;0.724;2023-02-12T08:14:42;7.0;70.0
26641;DHT22;14269;47.358;0.724;2023-02-12T08:17:13;7.0;70.0
26641;DHT22;14269;47.358;0.724;2023-02-12T08:19:45;7.0;69.0
26641;DHT22;14269;47.358;0.724;2023-02-12T08:22:17;7.0;69.0
26641;DHT22;14269;47.358;0.724;2023-02-12T08:24:48;8.0;69.0
26641;DHT22;14269;47.358;0.724;2023-02-12T08:27:20;8.0;69.0
26641;DHT22;14269;47.358;0.724;2023-02-12T08:29:51;8.0;69.0
26641;DHT22;14269;47.358;0.724;2023-02-12T08:32:23;7.0;70.0
26641;DHT22;14269;47.358;0.724;2023-02-12T08:34:55;7.0;70.0
26641;DHT22;14269;47.358;0.724;2023-02-12T08:37:26;7.0;69.0
26641;DHT22;14269;47.358;0.724;2023-02-12T08:39:58;8.0;69.0
26641;DHT22;14269;47.358;0.724;2023-02-12T08:42:30;8.0;69.0
26641;DHT22;14269;47.358;0.724;2023-02-12T08:45:01;8.0;69.0
26641;DHT22;14269;47.358;0.724;2023-02-12T08:47:33;8.0;69.0
26641;DHT22;14269;47.358;0.724;2023-02-12T08:50:06;8.0;68.0
26641;DHT22;14269;47.358;0.724;2023-02-12T08:52:46;8.0;67.0
26641;DHT22;14269;47.358;0.724;2023-02-12T08:55:18;8.0;68.0
26641;DHT22;14269;47.358;0.724;2023-02-12T08:57:52;8.0;68.0
26641;DHT22;14269;47.358;0.724;2023-02-12T09:00:31;8.0;67.0
26641;DHT22;14269;47.358;0.724;2023-02-12T09:03:03;8.0;67.0
26641;DHT22;14269;47.358;0.724;2023-02-12T09:05:37;8.0;67.0
26641;DHT22;14269;47.358;0.724;2023-02-12T09:08:16;8.0;67.0
26641;DHT22;14269;47.358;0.724;2023-02-12T09:10:48;8.0;66.0
26641;DHT22;14269;47.358;0.724;2023-02-12T09:13:20;8.0;66.0
26641;DHT22;14269;47.358;0.724;2023-02-12T09:15:51;8.0;67.0
26641;DHT22;14269;47.358;0.724;2023-02-12T09:18:23;8.0;66.0
26641;DHT22;14269;47.358;0.724;2023-02-12T09:20:59;8.0;66.0
26641;DHT22;14269;47.358;0.724;2023-02-12T09:23:37;8.0;67.0
26641;DHT22;14269;47.358;0.724;2023-02-12T09:26:10;8.0;67.0
26641;DHT22;14269;47.358;0.724;2023-02-12T09:28:50;8.0;66.0
26641;DHT22;14269;47.358;0.724;2023-02-12T09:31:26;8.0;66.0
26641;DHT22;14269;47.358;0.724;2023-02-12T09:34:05;9.0;64.0
26641;DHT22;14269;47.358;0.724;2023-02-12T09:36:45;9.0;64.0
26641;DHT22;14269;47.358;0.724;2023-02-12T09:39:17;8.0;65.0
26641;DHT22;14269;47.358;0.724;2023-02-12T09:42:01;8.0;65.0
26641;DHT22;14269;47.358;0.724;2023-02-12T09:44:45;8.0;65.0
26641;DHT22;14269;47.358;0.724;2023-02-12T09:47:27;8.0;64.0
26641;DHT22;14269;47.358;0.724;2023-02-12T09:50:16;9.0;64.0
26641;DHT22;14269;47.358;0.724;2023-02-12T09:52:58;9.0;64.0
26641;DHT22;14269;47.358;0.724;2023-02-12T09:55:39;10.0;61.0
26641;DHT22;14269;47.358;0.724;2023-02-12T09:58:27;10.0;61.0
26641;DHT22;14269;47.358;0.724;2023-02-12T10:01:09;9.0;61.0
26641;DHT22;14269;47.358;0.724;2023-02-12T10:03:43;10.0;61.0
26641;DHT22;14269;47.358;0.724;2023-02-12T10:06:26;12.0;56.0
26641;DHT22;14269;47.358;0.724;2023-02-12T10:09:17;12.0;55.0
26641;DHT22;14269;47.358;0.724;2023-02-12T10:12:03;12.0;54.0
26641;DHT22;14269;47.358;0.724;2023-02-12T10:14:50;11.0;55.0
26641;DHT22;14269;47.358;0.724;2023-02-12T10:17:36;10.0;57.0
26641;DHT22;14269;47.358;0.724;2023-02-12T10:20:32;10.0;59.0
26641;DHT22;14269;47.358;0.724;2023-02-12T10:23:34;11.0;57.0
26641;DHT22;14269;47.358;0.724;2023-02-12T10:26:14;11.0;56.0
26641;DHT22;14269;47.358;0.724;2023-02-12T10:28:50;10.0;58.0
26641;DHT22;14269;47.358;0.724;2023-02-12T10:31:34;10.0;58.0
26641;DHT22;14269;47.358;0.724;2023-02-12T10:34:17;11.0;58.0
26641;DHT22;14269;47.358;0.724;2023-02-12T10:36:57;10.0;58.0
26641;DHT22;14269;47.358;0.724;2023-02-12T10:39:40;10.0;59.0
26641;DHT22;14269;47.358;0.724;2023-02-12T10:42:22;10.0;59.0
26641;DHT22;14269;47.358;0.724;2023-02-12T10:44:59;10.0;59.0
26641;DHT22;14269;47.358;0.724;2023-02-12T10:47:31;10.0;60.0
26641;DHT22;14269;47.358;0.724;2023-02-12T10:50:15;10.0;59.0
26641;DHT22;14269;47.358;0.724;2023-02-12T10:52:57;10.0;59.0
26641;DHT22;14269;47.358;0.724;2023-02-12T10:55:36;10.0;59.0
26641;DHT22;14269;47.358;0.724;2023-02-12T10:58:17;10.0;57.0
26641;DHT22;14269;47.358;0.724;2023-02-12T11:00:56;12.0;56.0
26641;DHT22;14269;47.358;0.724;2023-02-12T11:03:33;14.0;49.0
26641;DHT22;14269;47.358;0.724;2023-02-12T11:06:15;15.0;46.0
26641;DHT22;14269;47.358;0.724;2023-02-12T11:08:56;15.0;47.0
26641;DHT22;14269;47.358;0.724;2023-02-12T11:11:37;14.0;48.0
26641;DHT22;14269;47.358;0.724;2023-02-12T11:14:16;15.0;49.0
26641;DHT22;14269;47.358;0.724;2023-02-12T11:16:52;14.0;48.0
26641;DHT22;14269;47.358;0.724;2023-02-12T11:19:34;15.0;47.0
26641;DHT22;14269;47.358;0.724;2023-02-12T11:22:17;14.0;47.0
26641;DHT22;14269;47.358;0.724;2023-02-12T11:25:00;14.0;48.0
26641;DHT22;14269;47.358;0.724;2023-02-12T11:27:37;14.0;47.0
26641;DHT22;14269;47.358;0.724;2023-02-12T11:30:14;14.0;49.0
26641;DHT22;14269;47.358;0.724;2023-02-12T11:32:52;15.0;46.0
26641;DHT22;14269;47.358;0.724;2023-02-12T11:35:24;16.0;45.0
26641;DHT22;14269;47.358;0.724;2023-02-12T11:38:04;17.0;41.0
26641;DHT22;14269;47.358;0.724;2023-02-12T11:40:46;18.0;39.0
26641;DHT22;14269;47.358;0.724;2023-02-12T11:43:18;18.0;39.0
26641;DHT22;14269;47.358;0.724;2023-02-12T11:45:52;18.0;39.0
26641;DHT22;14269;47.358;0.724;2023-02-12T11:48:33;19.0;37.0
26641;DHT22;14269;47.358;0.724;2023-02-12T11:51:19;17.0;40.0
26641;DHT22;14269;47.358;0.724;2023-02-12T11:53:57;17.0;40.0
26641;DHT22;14269;47.358;0.724;2023-02-12T11:56:41;17.0;40.0
26641;DHT22;14269;47.358;0.724;2023-02-12T11:59:29;18.0;38.0
26641;DHT22;14269;47.358;0.724;2023-02-12T12:02:18;16.0;42.0
26641;DHT22;14269;47.358;0.724;2023-02-12T12:05:08;16.0;42.0
26641;DHT22;14269;47.358;0.724;2023-02-12T12:07:46;16.0;42.0
26641;DHT22;14269;47.358;0.724;2023-02-12T12:10:33;16.0;41.0
26641;DHT22;14269;47.358;0.724;2023-02-12T12:13:13;17.0;41.0
26641;DHT22;14269;47.358;0.724;2023-02-12T12:20:55;17.0;40.0
26641;DHT22;14269;47.358;0.724;2023-02-12T12:23:37;17.0;39.0
26641;DHT22;14269;47.358;0.724;2023-02-12T12:26:21;18.0;38.0
26641;DHT22;14269;47.358;0.724;2023-02-12T12:29:02;18.0;37.0
26641;DHT22;14269;47.358;0.724;2023-02-12T12:31:41;19.0;35.0
26641;DHT22;14269;47.358;0.724;2023-02-12T12:34:23;18.0;36.0
26641;DHT22;14269;47.358;0.724;2023-02-12T12:37:13;17.0;40.0
26641;DHT22;14269;47.358;0.724;2023-02-12T12:40:06;17.0;40.0
26641;DHT22;14269;47.358;0.724;2023-02-12T12:42:56;18.0;39.0
26641;DHT22;14269;47.358;0.724;2023-02-12T12:46:49;18.0;39.0
26641;DHT22;14269;47.358;0.724;2023-02-12T12:49:41;16.0;41.0
26641;DHT22;14269;47.358;0.724;2023-02-12T12:52:40;16.0;43.0
26641;DHT22;14269;47.358;0.724;2023-02-12T12:55:47;17.0;43.0
26641;DHT22;14269;47.358;0.724;2023-02-12T12:58:36;16.0;41.0
26641;DHT22;14269;47.358;0.724;2023-02-12T13:01:37;16.0;43.0
26641;DHT22;14269;47.358;0.724;2023-02-12T13:04:46;17.0;42.0
26641;DHT22;14269;47.358;0.724;2023-02-12T13:07:42;18.0;40.0
26641;DHT22;14269;47.358;0.724;2023-02-12T13:10:21;17.0;40.0
26641;DHT22;14269;47.358;0.724;2023-02-12T13:13:15;19.0;37.0
26641;DHT22;14269;47.358;0.724;2023-02-12T13:16:07;19.0;36.0
26641;DHT22;14269;47.358;0.724;2023-02-12T13:18:50;17.0;40.0
26641;DHT22;14269;47.358;0.724;2023-02-12T13:21:38;17.0;40.0
26641;DHT22;14269;47.358;0.724;2023-02-12T13:24:22;18.0;37.0
26641;DHT22;14269;47.358;0.724;2023-02-12T13:26:57;18.0;36.0
26641;DHT22;14269;47.358;0.724;2023-02-12T13:29:40;18.0;38.0
26641;DHT22;14269;47.358;0.724;2023-02-12T13:32:23;19.0;36.0
26641;DHT22;14269;47.358;0.724;2023-02-12T13:35:01;20.0;33.0
26641;DHT22;14269;47.358;0.724;2023-02-12T13:37:45;19.0;34.0
26641;DHT22;14269;47.358;0.724;2023-02-12T13:40:26;19.0;35.0
26641;DHT22;14269;47.358;0.724;2023-02-12T13:43:18;20.0;34.0
26641;DHT22;14269;47.358;0.724;2023-02-12T13:46:03;20.0;34.0
26641;DHT22;14269;47.358;0.724;2023-02-12T13:48:46;20.0;34.0
26641;DHT22;14269;47.358;0.724;2023-02-12T13:51:30;19.0;35.0
26641;DHT22;14269;47.358;0.724;2023-02-12T13:54:24;19.0;35.0
26641;DHT22;14269;47.358;0.724;2023-02-12T13:57:08;20.0;34.0
26641;DHT22;14269;47.358;0.724;2023-02-12T13:59:49;20.0;34.0
26641;DHT22;14269;47.358;0.724;2023-02-12T14:02:42;20.0;34.0
26641;DHT22;14269;47.358;0.724;2023-02-12T14:05:24;20.0;34.0
26641;DHT22;14269;47.358;0.724;2023-02-12T14:08:04;21.0;31.0
26641;DHT22;14269;47.358;0.724;2023-02-12T14:11:02;21.0;30.0
26641;DHT22;14269;47.358;0.724;2023-02-12T14:13:47;21.0;31.0
26641;DHT22;14269;47.358;0.724;2023-02-12T14:16:38;20.0;31.0
26641;DHT22;14269;47.358;0.724;2023-02-12T14:20:24;20.0;31.0
26641;DHT22;14269;47.358;0.724;2023-02-12T14:23:21;20.0;31.0
26641;DHT22;14269;47.358;0.724;2023-02-12T14:25:58;20.0;32.0
26641;DHT22;14269;47.358;0.724;2023-02-12T14:28:49;19.0;34.0
26641;DHT22;14269;47.358;0.724;2023-02-12T14:31:31;20.0;33.0
26641;DHT22;14269;47.358;0.724;2023-02-12T14:34:48;21.0;32.0
26641;DHT22;14269;47.358;0.724;2023-02-12T14:37:36;21.0;31.0
26641;DHT22;14269;47.358;0.724;2023-02-12T14:40:46;21.0;31.0
26641;DHT22;14269;47.358;0.724;2023-02-12T14:43:33;20.0;32.0
26641;DHT22;14269;47.358;0.724;2023-02-12T14:46:47;20.0;33.0
26641;DHT22;14269;47.358;0.724;2023-02-12T14:49:22;19.0;33.0
26641;DHT22;14269;47.358;0.724;2023-02-12T14:52:05;20.0;33.0
26641;DHT22;14269;47.358;0.724;2023-02-12T14:54:44;20.0;32.0
26641;DHT22;14269;47.358;0.724;2023-02-12T14:57:28;20.0;33.0
26641;DHT22;14269;47.358;0.724;2023-02-12T15:00:22;19.0;32.0
26641;DHT22;14269;47.358;0.724;2023-02-12T15:03:12;19.0;34.0
26641;DHT22;14269;47.358;0.724;2023-02-12T15:06:02;19.0;34.0
26641;DHT22;14269;47.358;0.724;2023-02-12T15:08:47;19.0;34.0
26641;DHT22;14269;47.358;0.724;2023-02-12T15:11:33;19.0;34.0
26641;DHT22;14269;47.358;0.724;2023-02-12T15:14:21;19.0;33.0
26641;DHT22;14269;47.358;0.724;2023-02-12T15:17:01;20.0;33.0
26641;DHT22;14269;47.358;0.724;2023-02-12T15:19:42;20.0;33.0
26641;DHT22;14269;47.358;0.724;2023-02-12T15:22:23;20.0;33.0
26641;DHT22;14269;47.358;0.724;2023-02-12T15:25:23;20.0;34.0
26641;DHT22;14269;47.358;0.724;2023-02-12T15:28:14;19.0;34.0
26641;DHT22;14269;47.358;0.724;2023-02-12T15:30:56;20.0;34.0
26641;DHT22;14269;47.358;0.724;2023-02-12T15:33:29;19.0;35.0
26641;DHT22;14269;47.358;0.724;2023-02-12T15:36:10;18.0;36.0
26641;DHT22;14269;47.358;0.724;2023-02-12T15:38:53;19.0;36.0
26641;DHT22;14269;47.358;0.724;2023-02-12T15:41:37;18.0;37.0
26641;DHT22;14269;47.358;0.724;2023-02-12T15:44:31;18.0;37.0
26641;DHT22;14269;47.358;0.724;2023-02-12T15:47:12;17.0;39.0
26641;DHT22;14269;47.358;0.724;2023-02-12T15:49:48;16.0;42.0
26641;DHT22;14269;47.358;0.724;2023-02-12T15:52:25;15.0;43.0
26641;DHT22;14269;47.358;0.724;2023-02-12T15:55:15;15.0;45.0
26641;DHT22;14269;47.358;0.724;2023-02-12T15:57:56;14.0;46.0
26641;DHT22;14269;47.358;0.724;2023-02-12T16:00:43;14.0;47.0
26641;DHT22;14269;47.358;0.724;2023-02-12T16:03:20;14.0;47.0
26641;DHT22;14269;47.358;0.724;2023-02-12T16:06:02;14.0;48.0
26641;DHT22;14269;47.358;0.724;2023-02-12T16:08:42;14.0;47.0
26641;DHT22;14269;47.358;0.724;2023-02-12T16:11:23;14.0;49.0
26641;DHT22;14269;47.358;0.724;2023-02-12T16:14:07;13.0;50.0
26641;DHT22;14269;47.358;0.724;2023-02-12T16:16:48;13.0;50.0
26641;DHT22;14269;47.358;0.724;2023-02-12T16:19:29;13.0;51.0
26641;DHT22;14269;47.358;0.724;2023-02-12T16:22:14;13.0;51.0
26641;DHT22;14269;47.358;0.724;2023-02-12T16:24:53;13.0;50.0
26641;DHT22;14269;47.358;0.724;2023-02-12T16:27:33;13.0;51.0
26641;DHT22;14269;47.358;0.724;2023-02-12T16:30:24;13.0;51.0
26641;DHT22;14269;47.358;0.724;2023-02-12T16:32:57;13.0;51.0
26641;DHT22;14269;47.358;0.724;2023-02-12T16:35:30;12.0;52.0
26641;DHT22;14269;47.358;0.724;2023-02-12T16:38:38;12.0;52.0
26641;DHT22;14269;47.358;0.724;2023-02-12T16:41:20;12.0;52.0
26641;DHT22;14269;47.358;0.724;2023-02-12T16:44:28;12.0;52.0
26641;DHT22;14269;47.358;0.724;2023-02-12T16:47:05;12.0;52.0
26641;DHT22;14269;47.358;0.724;2023-02-12T16:49:37;12.0;52.0
26641;DHT22;14269;47.358;0.724;2023-02-12T16:52:34;12.0;53.0
26641;DHT22;14269;47.358;0.724;2023-02-12T16:55:13;12.0;53.0
26641;DHT22;14269;47.358;0.724;2023-02-12T16:57:52;12.0;53.0
26641;DHT22;14269;47.358;0.724;2023-02-12T17:00:25;12.0;53.0
26641;DHT22;14269;47.358;0.724;2023-02-12T17:03:06;12.0;54.0
26641;DHT22;14269;47.358;0.724;2023-02-12T17:05:37;12.0;54.0
26641;DHT22;14269;47.358;0.724;2023-02-12T17:08:11;12.0;54.0
26641;DHT22;14269;47.358;0.724;2023-02-12T17:10:51;11.0;54.0
26641;DHT22;14269;47.358;0.724;2023-02-12T17:13:22;11.0;54.0
26641;DHT22;14269;47.358;0.724;2023-02-12T17:15:56;11.0;54.0
26641;DHT22;14269;47.358;0.724;2023-02-12T17:18:37;11.0;54.0
26641;DHT22;14269;47.358;0.724;2023-02-12T17:21:21;11.0;54.0
26641;DHT22;14269;47.358;0.724;2023-02-12T17:23:59;11.0;55.0
26641;DHT22;14269;47.358;0.724;2023-02-12T17:26:31;11.0;55.0
26641;DHT22;14269;47.358;0.724;2023-02-12T17:29:04;11.0;56.0
26641;DHT22;14269;47.358;0.724;2023-02-12T17:31:45;11.0;56.0
26641;DHT22;14269;47.358;0.724;2023-02-12T17:34:16;11.0;56.0
26641;DHT22;14269;47.358;0.724;2023-02-12T17:36:48;11.0;57.0
26641;DHT22;14269;47.358;0.724;2023-02-12T17:39:19;11.0;57.0